Time;durP1;ratioP1;P1;durP2;ratioP2;P2;SDS_P1;SDS_P2;PMS_P1;PMS_P2;Temp;Humidity;BMP_temperature;BMP_pressure;BME280_temperature;BME280_humidity;BME280_pressure;Samples;Min_cycle;Max_cycle;Signal;HPM_P1;HPM_P2
2023/08/04 00:02:19;;;;;;;839.80;605.43;;;;;;;;;;5066743;28;20427;-75
2023/08/04 00:04:47;;;;;;;834.55;598.55;;;;;;;;;;5066754;28;20510;-75
2023/08/04 00:07:14;;;;;;;791.00;547.78;;;;;;;;;;5071134;28;20435;-75
2023/08/04 00:09:41;;;;;;;834.92;603.13;;;;;;;;;;5073465;28;20481;-74
2023/08/04 00:12:08;;;;;;;834.83;611.60;;;;;;;;;;5088934;28;20437;-75
2023/08/04 00:14:36;;;;;;;833.83;607.95;;;;;;;;;;5071143;28;20508;-74
2023/08/04 00:17:03;;;;;;;834.65;611.67;;;;;;;;;;5073494;28;20507;-76
2023/08/04 00:19:31;;;;;;;832.67;607.90;;;;;;;;;;5073548;28;20470;-76
2023/08/04 00:22:01;;;;;;;816.17;591.97;;;;;;;;;;5073736;28;20516;-75
2023/08/04 00:24:31;;;;;;;817.55;584.80;;;;;;;;;;5072498;28;20423;-75
2023/08/04 00:27:00;;;;;;;808.90;577.35;;;;;;;;;;5071965;28;20972;-75
2023/08/04 00:29:27;;;;;;;804.80;575.35;;;;;;;;;;5060228;28;20915;-75
2023/08/04 00:31:55;;;;;;;813.63;580.53;;;;;;;;;;5052131;28;20439;-76
2023/08/04 00:34:22;;;;;;;820.17;588.67;;;;;;;;;;5051784;28;20465;-76
2023/08/04 00:36:49;;;;;;;817.35;586.83;;;;;;;;;;5056142;28;20488;-75
2023/08/04 00:39:18;;;;;;;817.08;586.13;;;;;;;;;;5072191;28;20423;-76
2023/08/04 00:41:46;;;;;;;812.15;586.28;;;;;;;;;;5061856;28;20488;-76
2023/08/04 00:44:13;;;;;;;812.40;588.42;;;;;;;;;;5065262;28;20454;-76
2023/08/04 00:46:41;;;;;;;809.28;582.53;;;;;;;;;;5070203;28;20514;-76
2023/08/04 00:49:08;;;;;;;809.95;586.83;;;;;;;;;;5055134;28;20951;-75
2023/08/04 00:51:39;;;;;;;814.47;594.60;;;;;;;;;;5071049;28;20512;-75
2023/08/04 00:54:08;;;;;;;812.80;594.08;;;;;;;;;;5063453;28;20925;-75
2023/08/04 00:56:36;;;;;;;808.55;583.38;;;;;;;;;;5072838;28;20431;-74
2023/08/04 00:59:03;;;;;;;802.22;578.95;;;;;;;;;;5071678;28;20419;-75
2023/08/04 01:01:36;;;;;;;801.05;578.58;;;;;;;;;;5082975;28;20458;-75
2023/08/04 01:04:04;;;;;;;802.72;579.05;;;;;;;;;;5075945;28;20510;-76
2023/08/04 01:06:46;;;;;;;801.10;575.88;;;;;;;;;;5057800;28;20728;-75
2023/08/04 01:09:25;;;;;;;806.13;580.00;;;;;;;;;;5071858;28;20470;-75
2023/08/04 01:11:56;;;;;;;808.17;583.13;;;;;;;;;;5051600;28;20856;-75
2023/08/04 01:14:25;;;;;;;815.00;589.08;;;;;;;;;;5058036;28;20775;-75
2023/08/04 01:16:52;;;;;;;815.35;589.53;;;;;;;;;;5071004;28;20435;-75
2023/08/04 01:19:19;;;;;;;817.23;588.87;;;;;;;;;;5071230;28;20423;-76
2023/08/04 01:21:46;;;;;;;822.60;596.58;;;;;;;;;;5070507;28;20463;-76
2023/08/04 01:24:14;;;;;;;797.25;565.08;;;;;;;;;;5069167;28;20482;-75
2023/08/04 01:26:44;;;;;;;785.38;558.90;;;;;;;;;;4895207;28;4505979;-74
2023/08/04 01:29:12;;;;;;;804.03;579.90;;;;;;;;;;5055502;28;20477;-75
2023/08/04 01:31:40;;;;;;;814.95;590.63;;;;;;;;;;5071456;28;20643;-75
2023/08/04 01:34:07;;;;;;;821.63;593.00;;;;;;;;;;5070497;28;20798;-75
2023/08/04 01:36:37;;;;;;;825.45;594.35;;;;;;;;;;5068466;28;20813;-75
2023/08/04 01:39:04;;;;;;;813.83;588.55;;;;;;;;;;5074006;28;20419;-75
2023/08/04 01:41:31;;;;;;;815.03;586.28;;;;;;;;;;5072086;28;20473;-75
2023/08/04 01:43:58;;;;;;;820.05;599.05;;;;;;;;;;5072054;28;20433;-75
2023/08/04 01:46:26;;;;;;;813.75;588.30;;;;;;;;;;5067496;28;20427;-75
2023/08/04 01:48:53;;;;;;;819.38;601.65;;;;;;;;;;5052225;28;20433;-75
2023/08/04 01:51:20;;;;;;;816.83;595.25;;;;;;;;;;5051908;28;20515;-75
2023/08/04 01:53:50;;;;;;;819.63;598.83;;;;;;;;;;5050975;28;20463;-75
2023/08/04 01:56:19;;;;;;;818.45;596.45;;;;;;;;;;5060093;28;20429;-75
2023/08/04 01:58:46;;;;;;;812.90;586.30;;;;;;;;;;5051279;28;20449;-75
2023/08/04 02:01:17;;;;;;;812.97;590.53;;;;;;;;;;5059566;28;20427;-75
2023/08/04 02:03:44;;;;;;;785.60;544.20;;;;;;;;;;5070917;28;20427;-75
2023/08/04 02:06:11;;;;;;;805.63;580.60;;;;;;;;;;5069913;28;20457;-75
2023/08/04 02:08:38;;;;;;;800.53;576.72;;;;;;;;;;5055596;28;20464;-75
2023/08/04 02:11:05;;;;;;;797.60;579.40;;;;;;;;;;5065939;28;20437;-74
2023/08/04 02:13:32;;;;;;;796.00;571.95;;;;;;;;;;5066044;28;20516;-75
2023/08/04 02:16:00;;;;;;;784.88;569.78;;;;;;;;;;5050726;28;20437;-75
2023/08/04 02:18:27;;;;;;;779.78;562.70;;;;;;;;;;5067418;28;20455;-75
2023/08/04 02:20:57;;;;;;;790.22;584.33;;;;;;;;;;5071439;28;20473;-76
2023/08/04 02:23:24;;;;;;;776.40;563.95;;;;;;;;;;5071002;28;20959;-75
2023/08/04 02:25:52;;;;;;;778.80;569.33;;;;;;;;;;5069477;28;20958;-75
2023/08/04 02:28:19;;;;;;;775.95;566.22;;;;;;;;;;5071088;28;20427;-76
2023/08/04 02:30:47;;;;;;;793.95;581.15;;;;;;;;;;5067939;28;20431;-75
2023/08/04 02:33:15;;;;;;;788.63;579.72;;;;;;;;;;5071126;28;20427;-76
2023/08/04 02:35:42;;;;;;;797.00;586.85;;;;;;;;;;5070018;28;20439;-76
2023/08/04 02:38:09;;;;;;;796.05;589.30;;;;;;;;;;5069175;28;20423;-75
2023/08/04 02:40:37;;;;;;;790.67;589.03;;;;;;;;;;5067884;28;20423;-76
2023/08/04 02:43:04;;;;;;;797.25;598.38;;;;;;;;;;5070351;28;20502;-75
2023/08/04 02:45:31;;;;;;;794.70;597.20;;;;;;;;;;5069223;28;20481;-76
2023/08/04 02:47:58;;;;;;;789.35;596.13;;;;;;;;;;5068729;28;20431;-75
2023/08/04 02:50:26;;;;;;;786.60;592.50;;;;;;;;;;5061447;28;20436;-76
2023/08/04 02:52:53;;;;;;;780.17;585.72;;;;;;;;;;5063839;28;20432;-75
2023/08/04 02:55:20;;;;;;;787.40;591.70;;;;;;;;;;5069980;28;20510;-75
2023/08/04 02:57:47;;;;;;;795.05;593.10;;;;;;;;;;5070004;28;20518;-76
2023/08/04 03:00:14;;;;;;;779.75;586.90;;;;;;;;;;5069323;28;20492;-75
2023/08/04 03:02:41;;;;;;;772.67;581.10;;;;;;;;;;5070239;28;20762;-75
2023/08/04 03:05:09;;;;;;;764.38;575.40;;;;;;;;;;5069755;28;20908;-76
2023/08/04 03:07:38;;;;;;;766.95;569.88;;;;;;;;;;5070307;28;20431;-76
2023/08/04 03:10:06;;;;;;;771.80;573.43;;;;;;;;;;5051519;28;21030;-76
2023/08/04 03:12:33;;;;;;;767.55;567.20;;;;;;;;;;5050465;28;20469;-76
2023/08/04 03:15:00;;;;;;;759.72;567.47;;;;;;;;;;5051145;28;20944;-76
2023/08/04 03:17:28;;;;;;;755.70;561.45;;;;;;;;;;5070908;28;20518;-75
2023/08/04 03:19:56;;;;;;;746.95;538.75;;;;;;;;;;5070623;28;20427;-75
2023/08/04 03:22:23;;;;;;;626.83;453.60;;;;;;;;;;5069371;28;20447;-76
2023/08/04 03:24:53;;;;;;;725.38;520.20;;;;;;;;;;5069719;28;20457;-76
2023/08/04 03:27:23;;;;;;;717.45;511.17;;;;;;;;;;5070137;28;20432;-75
2023/08/04 03:29:50;;;;;;;718.92;501.27;;;;;;;;;;5068762;28;20958;-75
2023/08/04 03:32:18;;;;;;;728.90;516.70;;;;;;;;;;5067638;28;20498;-75
2023/08/04 03:34:45;;;;;;;736.72;522.40;;;;;;;;;;5069398;28;20432;-75
2023/08/04 03:37:12;;;;;;;739.47;525.90;;;;;;;;;;5069493;28;20427;-75
2023/08/04 03:39:39;;;;;;;735.13;524.83;;;;;;;;;;5065485;28;20431;-74
2023/08/04 03:42:06;;;;;;;728.65;516.15;;;;;;;;;;5069557;28;20901;-74
2023/08/04 03:44:33;;;;;;;741.35;524.80;;;;;;;;;;5067557;28;20429;-74
2023/08/04 03:47:01;;;;;;;744.95;531.83;;;;;;;;;;5049875;28;20437;-75
2023/08/04 03:49:28;;;;;;;735.53;516.92;;;;;;;;;;5052166;28;20522;-74
2023/08/04 03:51:55;;;;;;;716.10;488.85;;;;;;;;;;5059901;28;21215;-75
2023/08/04 03:54:22;;;;;;;723.25;512.53;;;;;;;;;;5069651;28;20438;-75
2023/08/04 03:56:50;;;;;;;703.58;490.80;;;;;;;;;;5069438;28;20910;-74
2023/08/04 03:59:17;;;;;;;715.28;514.03;;;;;;;;;;5069307;28;20799;-73
2023/08/04 04:01:44;;;;;;;723.33;515.53;;;;;;;;;;5050947;28;20448;-74
2023/08/04 04:04:12;;;;;;;731.30;519.95;;;;;;;;;;5058251;28;20544;-74
2023/08/04 04:06:39;;;;;;;726.15;504.50;;;;;;;;;;5055802;28;20440;-74
2023/08/04 04:09:06;;;;;;;731.25;516.88;;;;;;;;;;5058000;28;20436;-73
2023/08/04 04:11:37;;;;;;;732.67;516.25;;;;;;;;;;5070016;28;20431;-73
2023/08/04 04:14:04;;;;;;;725.35;508.98;;;;;;;;;;5070867;28;20531;-74
2023/08/04 04:16:31;;;;;;;726.75;513.38;;;;;;;;;;5071463;28;20459;-73
2023/08/04 04:18:59;;;;;;;726.30;512.83;;;;;;;;;;5051291;28;20438;-73
2023/08/04 04:21:26;;;;;;;716.28;503.70;;;;;;;;;;5052496;28;20436;-73
2023/08/04 04:23:53;;;;;;;714.10;498.55;;;;;;;;;;5051287;28;20455;-74
2023/08/04 04:26:22;;;;;;;712.38;495.92;;;;;;;;;;5069995;28;20432;-73
2023/08/04 04:28:49;;;;;;;703.08;475.10;;;;;;;;;;5069868;28;20944;-74
2023/08/04 04:31:19;;;;;;;694.50;465.55;;;;;;;;;;5051961;28;20428;-72
2023/08/04 04:33:46;;;;;;;691.85;468.17;;;;;;;;;;5051485;28;20436;-73
2023/08/04 04:36:13;;;;;;;685.45;457.23;;;;;;;;;;5053447;28;20527;-73
2023/08/04 04:38:40;;;;;;;671.92;436.85;;;;;;;;;;5052331;28;20487;-73
2023/08/04 04:41:07;;;;;;;665.30;443.73;;;;;;;;;;5052123;28;21287;-73
2023/08/04 04:43:35;;;;;;;652.75;422.85;;;;;;;;;;5052292;28;20448;-73
2023/08/04 04:46:03;;;;;;;648.90;416.73;;;;;;;;;;5051211;28;20448;-72
2023/08/04 04:48:30;;;;;;;652.22;420.38;;;;;;;;;;5045837;28;20457;-71
2023/08/04 04:50:57;;;;;;;656.88;430.88;;;;;;;;;;5066924;28;20435;-71
2023/08/04 04:53:25;;;;;;;661.83;437.13;;;;;;;;;;5070298;28;20427;-70
2023/08/04 04:55:57;;;;;;;667.13;432.50;;;;;;;;;;5066168;28;20429;-70
2023/08/04 04:58:24;;;;;;;657.72;426.95;;;;;;;;;;5051381;28;20433;-69
2023/08/04 05:00:52;;;;;;;661.60;437.63;;;;;;;;;;5052217;28;20483;-69
2023/08/04 05:03:19;;;;;;;648.53;403.50;;;;;;;;;;5056875;28;20813;-69
2023/08/04 05:05:49;;;;;;;648.88;397.40;;;;;;;;;;5070055;28;20432;-69
2023/08/04 05:08:16;;;;;;;637.83;390.37;;;;;;;;;;5063250;28;20854;-69
2023/08/04 05:10:43;;;;;;;634.25;388.63;;;;;;;;;;5069173;28;20957;-69
2023/08/04 05:13:10;;;;;;;630.73;381.67;;;;;;;;;;5078717;28;21098;-69
2023/08/04 05:15:37;;;;;;;628.53;381.52;;;;;;;;;;5060430;28;20440;-69
2023/08/04 05:18:04;;;;;;;628.93;379.57;;;;;;;;;;5054150;28;20436;-68
2023/08/04 05:20:34;;;;;;;625.13;376.75;;;;;;;;;;5060451;28;20423;-68
2023/08/04 05:23:01;;;;;;;626.58;380.50;;;;;;;;;;5072317;28;20430;-68
2023/08/04 05:25:31;;;;;;;635.47;375.38;;;;;;;;;;5078553;28;20431;-68
2023/08/04 05:28:18;;;;;;;642.13;398.40;;;;;;;;;;5071128;28;20516;-68
2023/08/04 05:30:45;;;;;;;640.72;393.98;;;;;;;;;;5067898;28;20446;-69
2023/08/04 05:33:12;;;;;;;666.95;425.85;;;;;;;;;;5070199;28;20455;-69
2023/08/04 05:35:40;;;;;;;661.65;424.85;;;;;;;;;;5067929;28;20431;-69
2023/08/04 05:38:11;;;;;;;658.05;419.65;;;;;;;;;;5064304;28;20443;-69
2023/08/04 05:40:42;;;;;;;673.05;431.55;;;;;;;;;;5065128;28;20474;-69
2023/08/04 05:43:10;;;;;;;660.20;429.20;;;;;;;;;;5079021;28;20426;-69
2023/08/04 05:45:38;;;;;;;654.63;426.83;;;;;;;;;;5071789;28;20442;-69
2023/08/04 05:48:05;;;;;;;645.83;419.57;;;;;;;;;;5065496;28;20622;-69
2023/08/04 05:50:35;;;;;;;646.15;409.83;;;;;;;;;;5063227;28;20434;-69
2023/08/04 05:53:03;;;;;;;653.53;414.88;;;;;;;;;;5068688;28;20428;-69
2023/08/04 05:55:30;;;;;;;663.60;437.83;;;;;;;;;;5076075;28;20435;-69
2023/08/04 05:57:58;;;;;;;669.72;441.63;;;;;;;;;;5070186;28;20432;-69
2023/08/04 06:00:25;;;;;;;682.40;465.20;;;;;;;;;;5077016;28;20511;-69
2023/08/04 06:02:55;;;;;;;677.03;456.03;;;;;;;;;;5055569;28;20680;-68
2023/08/04 06:05:22;;;;;;;683.60;462.88;;;;;;;;;;5073370;28;20549;-69
2023/08/04 06:07:50;;;;;;;693.10;469.10;;;;;;;;;;5053271;28;20520;-69
2023/08/04 06:10:20;;;;;;;682.67;471.40;;;;;;;;;;5069094;28;20474;-68
2023/08/04 06:12:51;;;;;;;678.90;463.70;;;;;;;;;;5060163;28;20445;-69
2023/08/04 06:15:18;;;;;;;686.95;472.67;;;;;;;;;;5059241;28;20438;-68
2023/08/04 06:17:48;;;;;;;681.40;456.47;;;;;;;;;;5064684;28;20438;-68
2023/08/04 06:20:16;;;;;;;701.37;469.77;;;;;;;;;;5062157;28;20510;-68
2023/08/04 06:22:43;;;;;;;690.58;466.90;;;;;;;;;;5063961;28;20433;-69
2023/08/04 06:25:14;;;;;;;718.45;488.60;;;;;;;;;;5059456;28;20534;-68
2023/08/04 06:27:41;;;;;;;740.30;507.73;;;;;;;;;;5063308;28;20977;-69
2023/08/04 06:30:09;;;;;;;730.85;491.20;;;;;;;;;;5067300;28;20434;-69
2023/08/04 06:32:36;;;;;;;722.10;497.30;;;;;;;;;;5066429;28;20440;-68
2023/08/04 06:35:03;;;;;;;729.22;500.42;;;;;;;;;;5065717;28;20504;-69
2023/08/04 06:37:30;;;;;;;734.58;515.97;;;;;;;;;;5061673;28;20435;-69
2023/08/04 06:39:57;;;;;;;741.97;513.10;;;;;;;;;;5056472;28;20433;-69
2023/08/04 06:42:25;;;;;;;742.88;512.65;;;;;;;;;;5065694;28;20485;-69
2023/08/04 06:44:52;;;;;;;770.70;537.80;;;;;;;;;;5065340;28;20435;-69
2023/08/04 06:47:19;;;;;;;771.90;530.63;;;;;;;;;;5064682;28;20450;-68
2023/08/04 06:49:47;;;;;;;772.72;531.70;;;;;;;;;;5066972;28;20425;-69
2023/08/04 06:52:14;;;;;;;764.95;535.35;;;;;;;;;;5060705;28;20432;-69
2023/08/04 06:54:43;;;;;;;758.17;519.42;;;;;;;;;;5057631;28;20427;-69
2023/08/04 06:57:10;;;;;;;743.08;508.98;;;;;;;;;;5059647;28;20435;-69
2023/08/04 06:59:38;;;;;;;748.03;512.67;;;;;;;;;;5051650;28;20428;-69
2023/08/04 07:02:07;;;;;;;740.25;499.15;;;;;;;;;;5058001;28;20429;-69
2023/08/04 07:04:38;;;;;;;742.97;508.10;;;;;;;;;;5059419;28;20952;-69
2023/08/04 07:07:08;;;;;;;743.38;512.28;;;;;;;;;;5066512;28;20435;-69
2023/08/04 07:09:35;;;;;;;735.88;489.88;;;;;;;;;;5066815;28;20430;-68
2023/08/04 07:12:06;;;;;;;736.53;489.60;;;;;;;;;;5069514;28;20420;-69
2023/08/04 07:14:33;;;;;;;735.53;500.88;;;;;;;;;;5064375;28;20476;-68
2023/08/04 07:17:00;;;;;;;749.25;499.92;;;;;;;;;;5065194;28;20427;-68
2023/08/04 07:19:28;;;;;;;748.38;500.75;;;;;;;;;;5067817;28;20861;-69
2023/08/04 07:21:55;;;;;;;747.85;508.40;;;;;;;;;;5061146;28;20438;-69
2023/08/04 07:24:22;;;;;;;772.25;528.75;;;;;;;;;;5080861;28;20423;-68
2023/08/04 07:26:53;;;;;;;785.13;555.42;;;;;;;;;;5082696;28;20423;-69
2023/08/04 07:29:20;;;;;;;814.95;584.58;;;;;;;;;;5066022;28;20480;-69
2023/08/04 07:31:47;;;;;;;839.67;609.50;;;;;;;;;;5066273;28;20435;-69
2023/08/04 07:34:17;;;;;;;808.85;580.90;;;;;;;;;;5068566;28;20864;-69
2023/08/04 07:36:44;;;;;;;816.03;594.27;;;;;;;;;;5063500;28;20430;-69
2023/08/04 07:39:11;;;;;;;837.22;611.70;;;;;;;;;;5061771;28;20500;-69
2023/08/04 07:41:38;;;;;;;850.22;616.08;;;;;;;;;;5056558;28;20481;-68
2023/08/04 07:44:05;;;;;;;826.28;597.58;;;;;;;;;;5061335;28;20466;-68
2023/08/04 07:46:33;;;;;;;823.58;594.42;;;;;;;;;;5070201;28;20433;-68
2023/08/04 07:49:00;;;;;;;817.80;591.40;;;;;;;;;;5061567;28;20900;-68
2023/08/04 07:51:27;;;;;;;850.58;618.95;;;;;;;;;;5064245;28;21658;-68
2023/08/04 07:53:54;;;;;;;831.17;601.35;;;;;;;;;;5065961;28;20434;-67
2023/08/04 07:56:22;;;;;;;824.30;596.10;;;;;;;;;;5061030;28;20431;-69
2023/08/04 07:58:49;;;;;;;823.90;593.70;;;;;;;;;;5065798;28;20501;-70
2023/08/04 08:01:16;;;;;;;806.03;588.67;;;;;;;;;;5069038;28;21194;-70
2023/08/04 08:03:44;;;;;;;794.53;575.60;;;;;;;;;;5057098;28;20478;-70
2023/08/04 08:06:11;;;;;;;799.92;584.67;;;;;;;;;;5057452;28;20492;-69
2023/08/04 08:08:39;;;;;;;793.30;574.92;;;;;;;;;;5070948;28;20993;-69
2023/08/04 08:11:09;;;;;;;793.85;579.83;;;;;;;;;;5058916;28;20441;-69
2023/08/04 08:13:38;;;;;;;790.65;579.53;;;;;;;;;;5067327;28;20433;-69
2023/08/04 08:16:15;;;;;;;795.47;583.22;;;;;;;;;;5085942;28;20885;-69
2023/08/04 08:18:46;;;;;;;801.83;594.85;;;;;;;;;;5066764;28;20457;-68
2023/08/04 08:21:13;;;;;;;819.03;602.95;;;;;;;;;;5059680;28;20435;-69
2023/08/04 08:23:40;;;;;;;815.72;595.60;;;;;;;;;;5072165;28;20794;-69
2023/08/04 08:26:11;;;;;;;825.10;609.87;;;;;;;;;;5088605;28;20422;-69
2023/08/04 08:28:38;;;;;;;828.75;613.40;;;;;;;;;;5071153;28;20494;-68
2023/08/04 08:31:06;;;;;;;818.92;599.03;;;;;;;;;;5063330;28;20453;-69
2023/08/04 08:33:33;;;;;;;815.30;596.20;;;;;;;;;;5065106;28;20461;-68
2023/08/04 08:36:00;;;;;;;819.30;600.00;;;;;;;;;;5069014;28;20516;-68
2023/08/04 08:38:27;;;;;;;830.67;613.88;;;;;;;;;;5051410;28;20429;-68
2023/08/04 08:40:54;;;;;;;824.07;604.13;;;;;;;;;;5063553;28;21288;-68
2023/08/04 08:43:22;;;;;;;816.13;584.45;;;;;;;;;;5059466;28;20437;-68
2023/08/04 08:45:51;;;;;;;818.20;596.88;;;;;;;;;;5070008;28;20454;-68
2023/08/04 08:48:19;;;;;;;830.43;610.43;;;;;;;;;;5055645;28;20446;-68
2023/08/04 08:50:50;;;;;;;837.77;614.03;;;;;;;;;;5058981;28;21033;-67
2023/08/04 08:53:22;;;;;;;839.28;613.85;;;;;;;;;;5061038;28;20527;-67
2023/08/04 08:55:50;;;;;;;852.38;629.53;;;;;;;;;;5061324;28;20458;-67
2023/08/04 08:58:18;;;;;;;853.03;632.72;;;;;;;;;;5060815;28;20479;-67
2023/08/04 09:00:48;;;;;;;837.30;590.10;;;;;;;;;;5055371;28;20978;-68
2023/08/04 09:03:15;;;;;;;833.85;592.85;;;;;;;;;;5060506;28;20921;-67
2023/08/04 09:05:45;;;;;;;842.05;611.10;;;;;;;;;;5057048;28;20544;-68
2023/08/04 09:08:16;;;;;;;837.20;610.63;;;;;;;;;;5057518;28;20436;-67
2023/08/04 09:10:44;;;;;;;842.50;617.88;;;;;;;;;;5068782;28;20431;-68
2023/08/04 09:13:12;;;;;;;849.22;631.78;;;;;;;;;;5059029;28;20572;-67
2023/08/04 09:16:12;;;;;;;847.08;615.33;;;;;;;;;;5062129;28;20981;-67
2023/08/04 09:18:40;;;;;;;860.63;628.15;;;;;;;;;;5002520;28;20477;-65
2023/08/04 09:21:07;;;;;;;864.30;633.90;;;;;;;;;;5000249;28;20430;-65
2023/08/04 09:23:53;;;;;;;870.00;645.78;;;;;;;;;;4995064;28;20457;-66
2023/08/04 09:26:20;;;;;;;882.08;653.83;;;;;;;;;;5004758;28;20437;-65
2023/08/04 09:29:02;;;;;;;884.70;657.53;;;;;;;;;;4998745;28;20520;-65
2023/08/04 09:31:37;;;;;;;893.47;676.53;;;;;;;;;;5004460;28;21280;-65
2023/08/04 09:34:11;;;;;;;903.05;691.45;;;;;;;;;;5002773;28;20541;-65
2023/08/04 09:36:42;;;;;;;909.63;700.40;;;;;;;;;;5005574;28;20480;-65
2023/08/04 09:39:10;;;;;;;915.30;712.07;;;;;;;;;;5001963;28;20438;-64
2023/08/04 09:41:39;;;;;;;916.57;710.97;;;;;;;;;;5001302;28;20429;-66
2023/08/04 09:44:10;;;;;;;915.08;715.40;;;;;;;;;;5001798;28;20446;-66
2023/08/04 09:46:47;;;;;;;922.55;725.60;;;;;;;;;;5001418;28;21075;-66
2023/08/04 09:49:17;;;;;;;918.92;717.83;;;;;;;;;;4990892;28;20495;-66
2023/08/04 09:51:44;;;;;;;923.60;727.80;;;;;;;;;;5004101;28;20425;-66
2023/08/04 09:54:13;;;;;;;928.07;734.83;;;;;;;;;;4993961;28;20436;-63
2023/08/04 09:56:41;;;;;;;924.75;726.42;;;;;;;;;;5056214;28;20459;-66
2023/08/04 09:59:08;;;;;;;921.83;722.22;;;;;;;;;;5063568;28;20541;-65
2023/08/04 10:01:36;;;;;;;924.92;724.70;;;;;;;;;;5058139;28;21008;-65
2023/08/04 10:04:06;;;;;;;920.60;719.83;;;;;;;;;;5060138;28;20798;-65
2023/08/04 10:06:34;;;;;;;922.78;713.35;;;;;;;;;;5066650;28;20428;-65
2023/08/04 10:09:04;;;;;;;919.03;710.63;;;;;;;;;;5059908;28;20435;-65
2023/08/04 10:11:34;;;;;;;918.30;714.63;;;;;;;;;;5061875;28;20784;-65
2023/08/04 10:14:04;;;;;;;919.50;717.57;;;;;;;;;;5057316;28;20438;-65
2023/08/04 10:16:35;;;;;;;915.28;709.45;;;;;;;;;;5054669;28;20443;-65
2023/08/04 10:19:09;;;;;;;918.05;712.60;;;;;;;;;;5063242;28;21034;-65
2023/08/04 10:21:39;;;;;;;916.00;710.58;;;;;;;;;;5062991;28;20459;-62
2023/08/04 10:24:09;;;;;;;917.20;717.42;;;;;;;;;;5060768;28;20447;-65
2023/08/04 10:26:50;;;;;;;923.70;722.47;;;;;;;;;;5057489;28;20440;-65
2023/08/04 10:29:18;;;;;;;920.72;721.92;;;;;;;;;;5062676;28;20433;-63
2023/08/04 10:31:51;;;;;;;926.72;728.08;;;;;;;;;;5058992;28;20439;-63
2023/08/04 10:34:31;;;;;;;930.47;734.35;;;;;;;;;;5061140;28;20427;-64
2023/08/04 10:36:59;;;;;;;933.22;740.40;;;;;;;;;;5063325;28;20431;-64
2023/08/04 10:39:35;;;;;;;933.95;749.65;;;;;;;;;;5061596;28;20504;-63
2023/08/04 10:42:05;;;;;;;923.67;730.93;;;;;;;;;;5059208;28;20424;-64
2023/08/04 10:44:47;;;;;;;934.95;745.60;;;;;;;;;;5057836;28;20429;-64
2023/08/04 10:47:18;;;;;;;937.75;746.88;;;;;;;;;;5060955;28;20429;-64
2023/08/04 10:49:48;;;;;;;937.83;744.42;;;;;;;;;;5057991;28;20428;-64
2023/08/04 10:52:18;;;;;;;942.63;757.33;;;;;;;;;;5063105;28;20898;-64
2023/08/04 10:54:49;;;;;;;949.67;762.97;;;;;;;;;;5061991;28;20897;-64
2023/08/04 10:57:21;;;;;;;949.20;765.73;;;;;;;;;;5063937;28;20431;-63
2023/08/04 10:59:49;;;;;;;1002.07;818.83;;;;;;;;;;5058706;28;20487;-64
2023/08/04 11:02:17;;;;;;;998.58;819.33;;;;;;;;;;5060002;28;20495;-64
2023/08/04 11:04:45;;;;;;;1017.45;846.00;;;;;;;;;;5049757;28;20424;-63
2023/08/04 11:07:13;;;;;;;946.15;773.70;;;;;;;;;;5056180;28;20428;-63
2023/08/04 11:09:41;;;;;;;946.60;773.65;;;;;;;;;;5056134;28;20432;-63
2023/08/04 11:12:09;;;;;;;954.05;779.50;;;;;;;;;;5066764;28;20431;-64
2023/08/04 11:14:37;;;;;;;958.95;793.10;;;;;;;;;;5050344;28;20522;-63
2023/08/04 11:17:14;;;;;;;956.10;780.63;;;;;;;;;;5053941;28;20432;-64
2023/08/04 11:19:49;;;;;;;960.30;793.43;;;;;;;;;;5070059;28;21012;-64
2023/08/04 11:22:17;;;;;;;963.88;799.38;;;;;;;;;;5065724;28;20434;-66
2023/08/04 11:24:45;;;;;;;966.72;809.67;;;;;;;;;;5064600;28;20424;-64
2023/08/04 11:27:13;;;;;;;968.70;812.22;;;;;;;;;;5065633;28;20485;-64
2023/08/04 11:29:40;;;;;;;970.77;816.27;;;;;;;;;;5055754;28;20433;-64
2023/08/04 11:32:20;;;;;;;965.80;813.20;;;;;;;;;;5077030;28;20536;-64
2023/08/04 11:34:48;;;;;;;963.00;808.20;;;;;;;;;;5059022;28;20534;-64
2023/08/04 11:41:00;;;;;;;943.15;778.70;;;;;;;;;;5062223;28;20506;-64
2023/08/04 11:43:29;;;;;;;931.35;759.03;;;;;;;;;;5004810;28;20516;-64
2023/08/04 11:45:57;;;;;;;926.72;744.55;;;;;;;;;;5040146;28;20436;-64
2023/08/04 11:48:31;;;;;;;932.88;761.33;;;;;;;;;;5039313;28;20523;-63
2023/08/04 11:50:58;;;;;;;937.72;762.33;;;;;;;;;;5042755;28;20473;-64
2023/08/04 11:53:25;;;;;;;939.55;764.65;;;;;;;;;;5037266;28;20941;-64
2023/08/04 11:55:59;;;;;;;932.03;753.27;;;;;;;;;;5046128;28;20437;-64
2023/08/04 11:58:37;;;;;;;934.45;757.72;;;;;;;;;;5035363;28;20452;-64
2023/08/04 12:01:05;;;;;;;936.75;762.03;;;;;;;;;;5042341;28;20943;-64
2023/08/04 12:03:47;;;;;;;942.37;769.33;;;;;;;;;;5036560;28;20437;-64
2023/08/04 12:06:15;;;;;;;940.33;774.22;;;;;;;;;;5035695;28;20426;-64
2023/08/04 12:08:55;;;;;;;941.58;773.90;;;;;;;;;;5040985;28;20433;-66
2023/08/04 12:11:26;;;;;;;930.95;761.15;;;;;;;;;;5040740;28;20510;-67
2023/08/04 12:14:07;;;;;;;929.63;759.28;;;;;;;;;;5045206;28;20456;-63
2023/08/04 12:16:55;;;;;;;930.75;759.40;;;;;;;;;;5039697;28;20435;-63
2023/08/04 12:19:23;;;;;;;931.65;757.08;;;;;;;;;;5036443;28;20485;-64
2023/08/04 12:21:51;;;;;;;928.17;750.25;;;;;;;;;;5040644;28;20816;-64
2023/08/04 12:24:19;;;;;;;950.77;783.53;;;;;;;;;;5035743;28;20445;-64
2023/08/04 12:26:46;;;;;;;951.00;786.85;;;;;;;;;;5037497;28;20534;-65
2023/08/04 12:29:15;;;;;;;943.72;779.03;;;;;;;;;;5038878;28;20434;-63
2023/08/04 12:31:45;;;;;;;946.13;784.33;;;;;;;;;;5039374;28;21146;-65
2023/08/04 12:34:16;;;;;;;941.40;779.33;;;;;;;;;;5037948;28;20447;-63
2023/08/04 12:36:46;;;;;;;936.90;766.97;;;;;;;;;;5041202;28;22546;-63
2023/08/04 12:39:13;;;;;;;942.72;778.55;;;;;;;;;;5034526;28;20513;-62
2023/08/04 12:41:41;;;;;;;941.38;776.00;;;;;;;;;;5038700;28;20465;-62
2023/08/04 12:44:12;;;;;;;942.78;780.90;;;;;;;;;;5038632;28;20427;-63
2023/08/04 12:46:39;;;;;;;951.25;791.72;;;;;;;;;;5038037;28;20433;-63
2023/08/04 12:49:06;;;;;;;955.58;800.22;;;;;;;;;;5040203;28;20437;-62
2023/08/04 12:51:34;;;;;;;955.25;804.28;;;;;;;;;;5036130;28;20433;-63
2023/08/04 12:54:01;;;;;;;951.90;799.72;;;;;;;;;;5041210;28;20437;-65
2023/08/04 12:56:28;;;;;;;950.75;797.10;;;;;;;;;;5034960;28;20482;-63
2023/08/04 12:58:58;;;;;;;945.25;783.13;;;;;;;;;;5037768;28;20516;-63
2023/08/04 13:01:25;;;;;;;949.13;786.80;;;;;;;;;;5034610;28;21026;-62
2023/08/04 13:03:53;;;;;;;940.37;772.63;;;;;;;;;;5043388;28;20491;-63
2023/08/04 13:06:20;;;;;;;943.22;777.83;;;;;;;;;;5034513;28;20480;-63
2023/08/04 13:08:47;;;;;;;949.15;786.72;;;;;;;;;;5040491;28;20441;-64
2023/08/04 13:11:18;;;;;;;955.55;796.60;;;;;;;;;;5041457;28;20437;-64
2023/08/04 13:13:47;;;;;;;960.97;807.70;;;;;;;;;;5033510;28;20437;-63
2023/08/04 13:16:14;;;;;;;957.20;803.77;;;;;;;;;;5042142;28;20429;-63
2023/08/04 13:18:51;;;;;;;962.70;810.83;;;;;;;;;;5036631;28;20846;-63
2023/08/04 13:21:19;;;;;;;965.83;815.93;;;;;;;;;;5034179;28;20521;-61
2023/08/04 13:23:47;;;;;;;966.80;819.95;;;;;;;;;;5032474;28;20429;-62
2023/08/04 13:26:14;;;;;;;974.33;832.72;;;;;;;;;;5042905;28;20812;-63
2023/08/04 13:28:42;;;;;;;972.83;830.43;;;;;;;;;;5037046;28;20518;-64
2023/08/04 13:31:12;;;;;;;977.92;841.05;;;;;;;;;;5034217;28;20441;-63
2023/08/04 13:33:39;;;;;;;976.47;838.43;;;;;;;;;;5041068;28;20472;-63
2023/08/04 13:36:09;;;;;;;977.53;841.72;;;;;;;;;;5041540;28;20441;-64
2023/08/04 13:38:36;;;;;;;979.72;849.92;;;;;;;;;;5037487;28;21006;-62
2023/08/04 13:41:03;;;;;;;967.25;829.50;;;;;;;;;;5036070;28;20515;-64
2023/08/04 13:43:30;;;;;;;972.63;832.17;;;;;;;;;;5028660;28;20923;-64
2023/08/04 13:46:01;;;;;;;1018.25;893.53;;;;;;;;;;5034601;28;20433;-64
2023/08/04 13:48:31;;;;;;;988.63;853.27;;;;;;;;;;5038297;28;20474;-63
2023/08/04 13:51:04;;;;;;;991.60;857.23;;;;;;;;;;5036992;28;20481;-63
2023/08/04 13:53:47;;;;;;;1000.20;871.28;;;;;;;;;;5033001;28;20957;-63
2023/08/04 13:56:15;;;;;;;998.80;871.83;;;;;;;;;;5033304;28;20533;-62
2023/08/04 13:58:42;;;;;;;1006.08;883.20;;;;;;;;;;5036262;28;20506;-63
2023/08/04 14:01:09;;;;;;;1026.88;907.22;;;;;;;;;;5032118;28;20433;-63
2023/08/04 14:03:37;;;;;;;1028.68;914.63;;;;;;;;;;5036353;28;20463;-63
2023/08/04 14:06:04;;;;;;;1030.87;916.80;;;;;;;;;;5036285;28;20805;-63